createdAt,value
2018-11-25T00:01:12.000Z,15.53
2018-11-25T00:03:42.135Z,18.95
2018-11-25T00:06:12.284Z,17.17
2018-11-25T00:08:42.442Z,19.62
2018-11-25T00:11:12.643Z,17.87
2018-11-25T00:13:42.771Z,20.05
2018-11-25T00:16:12.924Z,18.00
2018-11-25T00:18:43.050Z,16.87
2018-11-25T00:21:13.179Z,17.25
2018-11-25T00:23:43.313Z,15.85
2018-11-25T00:26:13.452Z,15.48
2018-11-25T00:28:43.560Z,17.60
2018-11-25T00:31:13.687Z,17.12
2018-11-25T00:33:43.856Z,16.30
2018-11-25T00:36:13.966Z,21.80
2018-11-25T00:38:44.122Z,17.98
2018-11-25T00:41:14.322Z,19.92
2018-11-25T00:43:44.488Z,18.12
2018-11-25T00:46:14.593Z,18.48
2018-11-25T00:48:44.738Z,16.65
2018-11-25T00:51:14.913Z,19.87
2018-11-25T00:53:45.024Z,16.30
2018-11-25T00:56:15.211Z,16.90
2018-11-25T00:58:45.352Z,15.32
2018-11-25T01:01:15.500Z,17.32
2018-11-25T01:03:45.620Z,20.17
2018-11-25T01:06:15.724Z,23.07
2018-11-25T01:08:45.860Z,21.33
2018-11-25T01:11:15.981Z,20.57
2018-11-25T01:13:46.132Z,19.15
2018-11-25T01:16:16.408Z,17.98
2018-11-25T01:18:46.683Z,19.82
2018-11-25T01:21:16.983Z,25.40
2018-11-25T01:23:47.439Z,22.05
2018-11-25T01:26:17.761Z,19.75
2018-11-25T01:28:47.946Z,20.77
2018-11-25T01:31:18.148Z,28.23
2018-11-25T01:33:48.481Z,16.35
2018-11-25T01:36:18.615Z,21.05
2018-11-25T01:38:48.772Z,24.32
2018-11-25T01:41:18.874Z,23.10
2018-11-25T01:43:49.058Z,22.58
2018-11-25T01:46:19.190Z,20.90
2018-11-25T01:48:49.364Z,20.35
2018-11-25T01:51:19.524Z,20.00
2018-11-25T01:53:49.623Z,24.45
2018-11-25T01:56:19.697Z,19.10
2018-11-25T01:58:49.836Z,19.57
2018-11-25T02:01:19.952Z,20.23
2018-11-25T02:03:50.112Z,18.55
2018-11-25T02:06:20.243Z,24.07
2018-11-25T02:08:50.332Z,17.12
2018-11-25T02:11:20.466Z,16.97
2018-11-25T02:13:50.608Z,20.05
2018-11-25T02:16:23.650Z,22.00
2018-11-25T02:18:53.795Z,21.75
2018-11-25T02:21:24.071Z,20.85
2018-11-25T02:23:54.338Z,25.12
2018-11-25T02:26:24.520Z,17.23
2018-11-25T02:28:54.686Z,22.30
2018-11-25T02:31:24.823Z,21.40
2018-11-25T02:33:54.972Z,19.00
2018-11-25T02:36:25.115Z,19.15
2018-11-25T02:38:55.224Z,21.07
2018-11-25T02:41:25.386Z,21.30
2018-11-25T02:43:55.591Z,27.10
2018-11-25T02:46:25.748Z,23.15
2018-11-25T02:48:55.915Z,24.25
2018-11-25T02:51:26.038Z,23.75
2018-11-25T02:53:56.124Z,22.30
2018-11-25T02:56:26.281Z,23.83
2018-11-25T02:58:56.380Z,19.90
2018-11-25T03:01:26.484Z,25.48
2018-11-25T03:03:56.616Z,23.35
2018-11-25T03:06:26.774Z,21.73
2018-11-25T03:08:56.899Z,20.17
2018-11-25T03:11:27.135Z,21.82
2018-11-25T03:13:57.364Z,23.77
2018-11-25T03:16:27.648Z,20.43
2018-11-25T03:18:57.872Z,20.80
2018-11-25T03:21:28.373Z,23.02
2018-11-25T03:23:58.631Z,22.30
2018-11-25T03:26:28.854Z,20.50
2018-11-25T03:28:58.991Z,21.87
2018-11-25T03:31:29.334Z,21.12
2018-11-25T03:33:59.489Z,19.70
2018-11-25T03:36:29.573Z,19.00
2018-11-25T03:38:59.780Z,23.50
2018-11-25T03:41:29.954Z,23.50
2018-11-25T03:44:00.095Z,23.35
2018-11-25T03:46:30.258Z,22.82
2018-11-25T03:49:00.369Z,24.57
2018-11-25T03:51:30.507Z,23.05
2018-11-25T03:54:00.672Z,21.23
2018-11-25T03:56:30.814Z,27.13
2018-11-25T03:59:00.974Z,23.35
2018-11-25T04:01:31.181Z,23.38
2018-11-25T04:04:01.372Z,22.32
2018-11-25T04:06:31.488Z,22.15
2018-11-25T04:09:01.614Z,25.52
2018-11-25T04:11:33.236Z,20.65
2018-11-25T04:14:10.010Z,22.95
2018-11-25T04:16:40.227Z,19.50
2018-11-25T04:19:10.354Z,22.90
2018-11-25T04:21:40.489Z,23.38
2018-11-25T04:24:10.669Z,22.93
2018-11-25T04:26:40.791Z,21.23
2018-11-25T04:29:10.993Z,21.62
2018-11-25T04:31:41.158Z,22.80
2018-11-25T04:34:11.288Z,20.77
2018-11-25T04:36:41.443Z,17.87
2018-11-25T04:39:11.608Z,30.48
2018-11-25T04:41:41.734Z,20.60
2018-11-25T04:44:11.936Z,23.95
2018-11-25T04:46:42.130Z,21.87
2018-11-25T04:49:12.252Z,22.67
2018-11-25T04:51:42.448Z,20.12
2018-11-25T04:54:12.597Z,21.00
2018-11-25T04:56:42.878Z,22.40
2018-11-25T04:59:13.041Z,21.75
2018-11-25T05:01:43.186Z,19.25
2018-11-25T05:04:13.371Z,20.27
2018-11-25T05:06:43.560Z,20.62
2018-11-25T05:09:13.755Z,18.25
2018-11-25T05:11:43.938Z,22.50
2018-11-25T05:14:14.162Z,19.32
2018-11-25T05:16:44.308Z,16.37
2018-11-25T05:19:14.476Z,17.02
2018-11-25T05:21:44.596Z,18.57
2018-11-25T05:24:14.757Z,21.15
2018-11-25T05:26:44.938Z,22.32
2018-11-25T05:29:15.099Z,21.23
2018-11-25T05:31:45.226Z,20.75
2018-11-25T05:34:15.331Z,22.25
2018-11-25T05:36:45.464Z,22.62
2018-11-25T05:39:15.602Z,21.97
2018-11-25T05:41:45.810Z,20.17
2018-11-25T05:44:15.942Z,20.80
2018-11-25T05:46:46.084Z,18.80
2018-11-25T05:49:16.214Z,21.68
2018-11-25T05:51:46.332Z,20.15
2018-11-25T05:54:16.499Z,19.12
2018-11-25T05:56:46.657Z,20.08
2018-11-25T05:59:16.803Z,24.18
2018-11-25T06:01:46.995Z,18.10
2018-11-25T06:04:17.173Z,19.85
2018-11-25T06:06:47.326Z,18.07
2018-11-25T06:09:17.499Z,18.82
2018-11-25T06:11:47.628Z,21.87
2018-11-25T06:14:23.986Z,22.80
2018-11-25T06:16:54.447Z,16.82
2018-11-25T06:19:24.267Z,27.07
2018-11-25T06:21:54.362Z,21.65
2018-11-25T06:24:24.492Z,17.55
2018-11-25T06:26:54.686Z,18.65
2018-11-25T06:29:24.836Z,24.45
2018-11-25T06:31:54.978Z,18.75
2018-11-25T06:34:25.080Z,22.87
2018-11-25T06:36:55.623Z,26.40
2018-11-25T06:39:25.722Z,23.05
2018-11-25T06:41:55.889Z,20.05
2018-11-25T06:44:26.078Z,23.22
2018-11-25T06:46:56.266Z,23.07
2018-11-25T06:49:26.357Z,22.52
2018-11-25T06:51:56.492Z,22.45
2018-11-25T06:54:26.588Z,22.95
2018-11-25T06:56:56.911Z,20.60
2018-11-25T06:59:26.871Z,25.82
2018-11-25T07:01:56.957Z,20.30
2018-11-25T07:04:27.130Z,21.90
2018-11-25T07:06:57.284Z,20.15
2018-11-25T07:09:29.785Z,24.75
2018-11-25T07:12:00.124Z,27.32
2018-11-25T07:14:30.269Z,22.67
2018-11-25T07:17:00.374Z,20.75
2018-11-25T07:19:30.479Z,22.40
2018-11-25T07:22:00.686Z,25.48
2018-11-25T07:24:33.153Z,25.08
2018-11-25T07:27:05.885Z,21.97
2018-11-25T07:29:38.629Z,20.77
2018-11-25T07:32:10.895Z,22.62
2018-11-25T07:34:43.574Z,22.75
2018-11-25T07:37:16.017Z,27.95
2018-11-25T07:39:46.432Z,23.60
2018-11-25T07:42:16.621Z,27.45
2018-11-25T07:44:46.820Z,27.05
2018-11-25T07:47:16.991Z,31.48
2018-11-25T07:49:47.295Z,29.40
2018-11-25T07:52:17.421Z,27.00
2018-11-25T07:54:47.635Z,29.82
2018-11-25T07:57:17.787Z,27.37
2018-11-25T07:59:47.981Z,26.70
2018-11-25T08:02:18.113Z,24.90
2018-11-25T08:04:48.280Z,29.40
2018-11-25T08:07:18.487Z,27.70
2018-11-25T08:09:48.655Z,26.75
2018-11-25T08:12:18.861Z,25.20
2018-11-25T08:14:49.002Z,27.35
2018-11-25T08:17:19.163Z,24.60
2018-11-25T08:19:49.301Z,29.15
2018-11-25T08:22:19.459Z,30.80
2018-11-25T08:24:49.628Z,35.28
2018-11-25T08:27:19.797Z,25.95
2018-11-25T08:29:50.002Z,33.13
2018-11-25T08:32:20.117Z,36.63
2018-11-25T08:34:50.254Z,28.65
2018-11-25T08:37:22.325Z,29.52
2018-11-25T08:39:53.932Z,31.85
2018-11-25T08:42:25.442Z,33.00
2018-11-25T08:44:56.020Z,28.20
2018-11-25T08:47:26.452Z,29.30
2018-11-25T08:49:57.020Z,32.38
2018-11-25T08:52:27.599Z,31.90
2018-11-25T08:54:58.090Z,34.27
2018-11-25T08:57:28.630Z,29.55
2018-11-25T08:59:59.040Z,37.55
2018-11-25T09:02:29.557Z,42.83
2018-11-25T09:05:00.403Z,29.42
2018-11-25T09:07:30.940Z,27.98
2018-11-25T09:10:01.473Z,32.10
2018-11-25T09:12:31.620Z,33.13
2018-11-25T09:15:01.749Z,32.55
2018-11-25T09:17:31.923Z,38.92
2018-11-25T09:20:02.054Z,29.92
2018-11-25T09:22:32.190Z,30.23
2018-11-25T09:25:02.319Z,33.83
2018-11-25T09:27:32.472Z,30.70
2018-11-25T09:30:02.639Z,36.75
2018-11-25T09:32:32.789Z,35.88
2018-11-25T09:35:02.935Z,35.55
2018-11-25T09:37:33.064Z,33.90
2018-11-25T09:40:03.372Z,33.75
2018-11-25T09:42:33.651Z,29.75
2018-11-25T09:45:06.862Z,31.57
2018-11-25T09:47:37.002Z,30.30
2018-11-25T09:50:10.774Z,32.65
2018-11-25T09:52:40.927Z,34.85
2018-11-25T09:55:16.690Z,32.10
2018-11-25T09:57:49.601Z,33.33
2018-11-25T10:00:24.344Z,32.25
2018-11-25T10:02:54.622Z,34.43
2018-11-25T10:05:24.756Z,27.67
2018-11-25T10:07:54.919Z,33.88
2018-11-25T10:10:25.868Z,34.88
2018-11-25T10:12:56.003Z,26.55
2018-11-25T10:15:27.844Z,29.48
2018-11-25T10:17:59.812Z,28.73
2018-11-25T10:20:32.686Z,30.90
2018-11-25T10:23:02.864Z,30.32
2018-11-25T10:25:39.704Z,27.58
2018-11-25T10:28:09.802Z,29.92
2018-11-25T10:30:39.940Z,29.15
2018-11-25T10:33:10.571Z,25.05
2018-11-25T10:35:40.780Z,25.77
2018-11-25T10:38:10.943Z,24.35
2018-11-25T10:40:41.133Z,24.43
2018-11-25T10:43:11.310Z,24.52
2018-11-25T10:45:41.430Z,21.45
2018-11-25T10:48:11.591Z,24.70
2018-11-25T10:50:41.729Z,26.75
2018-11-25T10:53:11.849Z,23.38
2018-11-25T10:55:42.056Z,23.70
2018-11-25T10:58:13.411Z,21.40
2018-11-25T11:00:48.781Z,24.63
2018-11-25T11:03:23.996Z,24.90
2018-11-25T11:05:54.388Z,22.70
2018-11-25T11:08:24.585Z,22.90
2018-11-25T11:10:55.373Z,23.15
2018-11-25T11:13:25.668Z,22.52
2018-11-25T11:15:56.030Z,22.48
2018-11-25T11:18:26.160Z,33.30
2018-11-25T11:20:56.324Z,24.15
2018-11-25T11:23:26.656Z,22.82
2018-11-25T11:25:56.817Z,22.45
2018-11-25T11:28:26.948Z,22.67
2018-11-25T11:30:57.172Z,23.52
2018-11-25T11:33:27.368Z,24.82
2018-11-25T11:35:57.560Z,25.65
2018-11-25T11:38:27.647Z,20.97
2018-11-25T11:40:57.819Z,21.02
2018-11-25T11:43:27.992Z,21.45
2018-11-25T11:45:58.170Z,21.20
2018-11-25T11:48:28.390Z,24.92
2018-11-25T11:50:58.544Z,21.33
2018-11-25T11:53:28.692Z,21.65
2018-11-25T11:55:58.920Z,22.48
2018-11-25T11:58:29.079Z,23.38
2018-11-25T12:00:59.352Z,21.23
2018-11-25T12:03:29.503Z,20.97
2018-11-25T12:05:59.638Z,21.70
2018-11-25T12:08:29.878Z,25.27
2018-11-25T12:11:00.068Z,23.35
2018-11-25T12:13:30.187Z,25.37
2018-11-25T12:16:00.336Z,21.45
2018-11-25T12:18:30.486Z,19.50
2018-11-25T12:21:00.578Z,21.30
2018-11-25T12:23:30.723Z,21.33
2018-11-25T12:26:00.886Z,17.27
2018-11-25T12:28:31.030Z,17.65
2018-11-25T12:31:01.356Z,21.33
2018-11-25T12:33:31.483Z,19.73
2018-11-25T12:36:01.649Z,17.05
2018-11-25T12:38:31.783Z,18.30
2018-11-25T12:41:01.963Z,17.73
2018-11-25T12:43:32.190Z,16.67
2018-11-25T12:46:02.332Z,16.65
2018-11-25T12:48:32.487Z,16.70
2018-11-25T12:51:02.701Z,18.67
2018-11-25T12:53:32.834Z,16.30
2018-11-25T12:56:02.963Z,17.27
2018-11-25T12:58:33.140Z,13.38
2018-11-25T13:01:03.326Z,15.55
2018-11-25T13:03:35.904Z,15.08
2018-11-25T13:06:06.116Z,13.10
2018-11-25T13:08:36.289Z,13.15
2018-11-25T13:11:06.612Z,17.00
2018-11-25T13:13:36.725Z,18.05
2018-11-25T13:16:06.917Z,15.10
2018-11-25T13:18:37.061Z,15.13
2018-11-25T13:21:07.232Z,13.85
2018-11-25T13:23:43.089Z,15.70
2018-11-25T13:26:07.614Z,13.93
2018-11-25T13:28:37.733Z,14.78
2018-11-25T13:31:07.883Z,12.47
2018-11-25T13:33:38.048Z,14.05
2018-11-25T13:36:10.207Z,11.35
2018-11-25T13:38:40.310Z,13.98
2018-11-25T13:41:10.452Z,12.68
2018-11-25T13:43:40.621Z,15.15
2018-11-25T13:46:10.763Z,16.55
2018-11-25T13:48:40.906Z,16.42
2018-11-25T13:51:11.060Z,17.17
2018-11-25T13:53:41.291Z,16.12
2018-11-25T13:56:11.382Z,23.67
2018-11-25T13:58:41.509Z,20.00
2018-11-25T14:01:11.697Z,16.67
2018-11-25T14:03:43.200Z,17.82
2018-11-25T14:06:14.938Z,17.15
2018-11-25T14:08:50.059Z,16.73
2018-11-25T14:11:20.229Z,17.82
2018-11-25T14:13:50.415Z,16.75
2018-11-25T14:16:22.165Z,17.90
2018-11-25T14:18:52.389Z,14.30
2018-11-25T14:21:22.539Z,13.85
2018-11-25T14:23:52.690Z,12.45
2018-11-25T14:26:26.678Z,12.13
2018-11-25T14:28:56.787Z,14.20
2018-11-25T14:31:27.096Z,15.43
2018-11-25T14:33:57.438Z,15.15
2018-11-25T14:36:27.532Z,14.68
2018-11-25T14:38:57.689Z,13.50
2018-11-25T14:41:27.826Z,16.45
2018-11-25T14:43:57.991Z,14.25
2018-11-25T14:46:28.163Z,16.07
2018-11-25T14:48:58.375Z,15.08
2018-11-25T14:51:28.530Z,11.75
2018-11-25T14:53:58.676Z,13.22
2018-11-25T14:56:28.836Z,16.95
2018-11-25T14:58:59.004Z,13.55
2018-11-25T15:01:29.166Z,15.68
2018-11-25T15:03:59.695Z,13.00
2018-11-25T15:06:29.851Z,12.45
2018-11-25T15:09:00.023Z,12.80
2018-11-25T15:11:30.116Z,15.88
2018-11-25T15:14:00.258Z,13.13
2018-11-25T15:16:30.355Z,14.18
2018-11-25T15:19:00.475Z,12.40
2018-11-25T15:21:30.783Z,10.70
2018-11-25T15:24:00.840Z,11.83
2018-11-25T15:26:31.107Z,12.73
2018-11-25T15:29:01.177Z,13.78
2018-11-25T15:31:31.323Z,14.47
2018-11-25T15:34:01.396Z,12.20
2018-11-25T15:36:31.527Z,13.13
2018-11-25T15:39:01.712Z,12.68
2018-11-25T15:41:31.802Z,14.05
2018-11-25T15:44:01.897Z,15.23
2018-11-25T15:46:32.060Z,14.07
2018-11-25T15:49:02.347Z,16.07
2018-11-25T15:51:32.457Z,15.53
2018-11-25T15:54:02.787Z,17.10
2018-11-25T15:56:32.916Z,15.90
2018-11-25T15:59:03.258Z,17.15
2018-11-25T16:01:33.423Z,15.90
2018-11-25T16:04:03.601Z,19.73
2018-11-25T16:06:36.378Z,19.00
2018-11-25T16:09:08.974Z,18.90
2018-11-25T16:11:39.100Z,18.87
2018-11-25T16:14:09.476Z,22.40
2018-11-25T16:16:39.841Z,19.05
2018-11-25T16:19:10.336Z,19.05
2018-11-25T16:21:40.562Z,20.85
2018-11-25T16:24:10.855Z,23.70
2018-11-25T16:26:42.640Z,21.45
2018-11-25T16:29:18.208Z,21.27
2018-11-25T16:31:48.391Z,20.57
2018-11-25T16:34:19.984Z,26.50
2018-11-25T16:36:50.140Z,25.43
2018-11-25T16:39:20.396Z,24.10
2018-11-25T16:41:50.668Z,20.77
2018-11-25T16:44:20.896Z,24.65
2018-11-25T16:46:51.127Z,26.00
2018-11-25T16:49:27.908Z,25.02
2018-11-25T16:51:58.062Z,24.27
2018-11-25T16:54:28.256Z,27.85
2018-11-25T16:56:58.669Z,24.82
2018-11-25T16:59:28.887Z,26.40
2018-11-25T17:01:59.080Z,25.72
2018-11-25T17:04:29.334Z,24.87
2018-11-25T17:06:59.500Z,22.67
2018-11-25T17:09:29.645Z,26.57
2018-11-25T17:11:59.904Z,22.35
2018-11-25T17:14:33.908Z,22.82
2018-11-25T17:17:00.735Z,24.70
2018-11-25T17:19:31.107Z,24.02
2018-11-25T17:22:02.298Z,22.27
2018-11-25T17:24:32.506Z,24.82
2018-11-25T17:27:02.737Z,28.55
2018-11-25T17:29:33.627Z,26.25
2018-11-25T17:32:04.048Z,26.97
2018-11-25T17:34:34.194Z,23.85
2018-11-25T17:37:04.321Z,22.55
2018-11-25T17:39:34.488Z,25.40
2018-11-25T17:42:05.566Z,27.73
2018-11-25T17:44:35.844Z,24.07
2018-11-25T17:47:06.043Z,24.63
2018-11-25T17:49:36.192Z,26.77
2018-11-25T17:52:06.329Z,28.15
2018-11-25T17:54:36.476Z,25.12
2018-11-25T17:57:06.635Z,23.20
2018-11-25T17:59:36.724Z,26.93
2018-11-25T18:02:07.465Z,25.70
2018-11-25T18:04:37.598Z,26.05
2018-11-25T18:07:07.843Z,26.15
2018-11-25T18:09:38.052Z,27.40
2018-11-25T18:12:08.263Z,22.93
2018-11-25T18:14:39.968Z,24.20
2018-11-25T18:17:10.349Z,28.20
2018-11-25T18:19:40.501Z,26.75
2018-11-25T18:22:16.484Z,24.87
2018-11-25T18:24:46.786Z,25.77
2018-11-25T18:27:16.867Z,29.85
2018-11-25T18:29:50.119Z,24.67
2018-11-25T18:32:20.266Z,24.77
2018-11-25T18:34:50.369Z,29.90
2018-11-25T18:37:20.500Z,23.42
2018-11-25T18:39:50.737Z,30.08
2018-11-25T18:42:20.899Z,24.85
2018-11-25T18:44:51.133Z,27.10
2018-11-25T18:47:21.267Z,27.20
2018-11-25T18:49:51.462Z,28.00
2018-11-25T18:52:21.622Z,27.85
2018-11-25T18:54:50.171Z,29.00
2018-11-25T18:57:20.414Z,30.15
2018-11-25T18:59:50.610Z,31.40
2018-11-25T19:02:28.104Z,24.82
2018-11-25T19:04:58.287Z,30.17
2018-11-25T19:07:28.398Z,26.90
2018-11-25T19:09:58.547Z,27.45
2018-11-25T19:12:28.698Z,29.25
2018-11-25T19:14:59.536Z,29.00
2018-11-25T19:17:29.720Z,25.85
2018-11-25T19:19:59.909Z,26.85
2018-11-25T19:22:30.033Z,27.40
2018-11-25T19:25:00.218Z,25.80
2018-11-25T19:27:30.290Z,26.30
2018-11-25T19:30:00.410Z,26.65
2018-11-25T19:32:30.543Z,28.67
2018-11-25T19:35:00.816Z,27.60
2018-11-25T19:37:31.011Z,31.15
2018-11-25T19:40:01.153Z,31.00
2018-11-25T19:42:32.498Z,26.33
2018-11-25T19:45:01.514Z,26.95
2018-11-25T19:47:31.644Z,32.53
2018-11-25T19:50:01.769Z,26.65
2018-11-25T19:52:31.920Z,27.35
2018-11-25T19:55:02.040Z,26.75
2018-11-25T19:57:32.247Z,26.07
2018-11-25T20:00:02.474Z,26.77
2018-11-25T20:02:32.702Z,31.00
2018-11-25T20:05:03.047Z,24.92
2018-11-25T20:07:33.277Z,30.23
2018-11-25T20:10:03.614Z,32.48
2018-11-25T20:12:40.066Z,28.60
2018-11-25T20:15:13.693Z,23.87
2018-11-25T20:17:43.852Z,28.80
2018-11-25T20:20:16.738Z,30.02
2018-11-25T20:22:47.191Z,26.50
2018-11-25T20:25:17.813Z,31.80
2018-11-25T20:27:55.833Z,29.00
2018-11-25T20:30:27.840Z,25.92
2018-11-25T20:33:03.240Z,33.35
2018-11-25T20:35:33.397Z,28.20
2018-11-25T20:38:08.708Z,27.95
2018-11-25T20:40:38.836Z,25.88
2018-11-25T20:43:09.104Z,28.05
2018-11-25T20:45:44.320Z,22.48
2018-11-25T20:48:14.435Z,28.42
2018-11-25T20:50:44.552Z,27.25
2018-11-25T20:53:20.716Z,31.07
2018-11-25T20:55:50.137Z,24.98
2018-11-25T20:58:20.247Z,25.45
2018-11-25T21:00:50.398Z,25.40
2018-11-25T21:03:20.499Z,22.58
2018-11-25T21:05:50.748Z,21.35
2018-11-25T21:08:20.833Z,23.38
2018-11-25T21:10:51.043Z,27.60
2018-11-25T21:13:21.184Z,30.80
2018-11-25T21:15:51.304Z,27.20
2018-11-25T21:18:21.499Z,29.42
2018-11-25T21:20:51.660Z,31.00
2018-11-25T21:23:21.886Z,29.00
2018-11-25T21:25:52.073Z,28.67
2018-11-25T21:28:22.241Z,31.02
2018-11-25T21:30:52.449Z,28.27
2018-11-25T21:33:22.579Z,24.15
2018-11-25T21:35:52.834Z,28.30
2018-11-25T21:38:22.942Z,28.17
2018-11-25T21:40:53.307Z,27.75
2018-11-25T21:43:23.592Z,28.65
2018-11-25T21:45:53.734Z,21.68
2018-11-25T21:48:23.909Z,28.17
2018-11-25T21:50:54.683Z,27.73
2018-11-25T21:53:24.776Z,25.40
2018-11-25T21:55:55.142Z,26.57
2018-11-25T21:58:28.672Z,26.75
2018-11-25T22:00:55.460Z,26.68
2018-11-25T22:03:25.620Z,25.40
2018-11-25T22:05:55.792Z,27.98
2018-11-25T22:08:25.926Z,32.25
2018-11-25T22:10:56.082Z,26.45
2018-11-25T22:13:26.206Z,26.70
2018-11-25T22:15:57.280Z,27.25
2018-11-25T22:18:26.422Z,24.82
2018-11-25T22:20:56.563Z,27.42
2018-11-25T22:23:26.763Z,25.00
2018-11-25T22:25:56.889Z,27.05
2018-11-25T22:28:27.084Z,22.13
2018-11-25T22:30:57.238Z,26.77
2018-11-25T22:33:27.408Z,26.97
2018-11-25T22:35:57.545Z,30.97
2018-11-25T22:38:27.766Z,24.87
2018-11-25T22:40:57.919Z,28.95
2018-11-25T22:43:28.082Z,25.30
2018-11-25T22:45:58.235Z,27.48
2018-11-25T22:48:28.389Z,26.07
2018-11-25T22:50:58.504Z,28.70
2018-11-25T22:53:28.649Z,31.10
2018-11-25T22:55:58.784Z,25.40
2018-11-25T22:58:28.896Z,30.30
2018-11-25T23:00:59.056Z,33.35
2018-11-25T23:03:29.162Z,31.85
2018-11-25T23:06:16.242Z,31.90
2018-11-25T23:08:46.473Z,33.50
2018-11-25T23:11:16.729Z,28.52
2018-11-25T23:13:46.931Z,26.85
2018-11-25T23:16:17.110Z,32.58
2018-11-25T23:18:47.346Z,32.78
2018-11-25T23:21:17.578Z,31.37
2018-11-25T23:23:47.728Z,31.30
2018-11-25T23:26:18.020Z,29.42
2018-11-25T23:28:48.232Z,37.70
2018-11-25T23:31:18.464Z,37.08
2018-11-25T23:33:48.619Z,29.75
2018-11-25T23:36:18.720Z,35.23
2018-11-25T23:38:48.902Z,31.27
2018-11-25T23:41:19.013Z,29.42
2018-11-25T23:43:49.220Z,35.68
2018-11-25T23:46:19.308Z,36.15
2018-11-25T23:48:49.504Z,33.67
2018-11-25T23:51:19.677Z,32.85
2018-11-25T23:53:49.836Z,36.53
2018-11-25T23:56:19.950Z,31.15
2018-11-25T23:58:50.139Z,34.50
